This is the latest recevied weather packets stored in our database for station/object JQ1YUX-13. If no packets are shown the sender has not sent any weather packets the latest 10 day(s).
| Time | Temp. | Humidity | Pressure | Rain* | Wind** | Luminosity | Snow |
|---|---|---|---|---|---|---|---|
| 1777652885 | 15.56° C | 79% | 994.6 hPa | 0 mm | - | - | - |
| 1777652326 | 15° C | 81% | 994.4 hPa | 0 mm | - | - | - |
| 1777651986 | 15° C | 82% | 994.5 hPa | 0 mm | - | - | - |
| 1777651084 | 14.44° C | 86% | 994.6 hPa | 0 mm | - | - | - |
| 1777650185 | 15° C | 88% | 994.6 hPa | 0 mm | - | - | - |
| 1777649286 | 15° C | 88% | 994.7 hPa | 0 mm | - | - | - |
| 1777648385 | 15° C | 88% | 994.8 hPa | 0 mm | - | - | - |
| 1777647485 | 15° C | 87% | 994.8 hPa | 0 mm | - | - | - |
| 1777646586 | 15.56° C | 87% | 994.7 hPa | 0 mm | - | - | - |
| 1777645684 | 15.56° C | 86% | 994.5 hPa | 0 mm | - | - | - |
| 1777644785 | 16.11° C | 85% | 994.4 hPa | 0 mm | - | - | - |
| 1777643886 | 16.11° C | 84% | 994.6 hPa | 0 mm | - | - | - |
| 1777642984 | 16.67° C | 84% | 994.5 hPa | 0 mm | - | - | - |
| 1777642084 | 16.67° C | 82% | 994.4 hPa | 0 mm | - | - | - |
| 1777641185 | 17.22° C | 79% | 994.3 hPa | 0 mm | - | - | - |
| 1777640285 | 17.78° C | 75% | 994.1 hPa | 0 mm | - | - | - |
| 1777639386 | 17.78° C | 75% | 993.6 hPa | 0 mm | - | - | - |
| 1777638484 | 17.78° C | 76% | 993.8 hPa | 0 mm | - | - | - |
| 1777637584 | 17.78° C | 77% | 993.4 hPa | 0 mm | - | - | - |
| 1777636685 | 17.78° C | 78% | 993.5 hPa | 0 mm | - | - | - |
| 1777635785 | 17.78° C | 77% | 993.3 hPa | 0 mm | - | - | - |
| 1777634884 | 18.33° C | 76% | 992.9 hPa | 0 mm | - | - | - |
| 1777633986 | 18.33° C | 74% | 992.2 hPa | 0 mm | - | - | - |
| 1777633084 | 18.89° C | 70% | 991.6 hPa | 0 mm | - | - | - |
| 1777632186 | 19.44° C | 65% | 990.9 hPa | 0 mm | - | - | - |
* Rain latest hour (hover to see other rain measurements)
** Current wind speed in m/s (hover to see current wind gust speed)